»·PEaware :: N335PE KASE-KDEN

N335PE :: KASE-KDEN

FLIGHT INFORMATION

Flight Status: Arrived
Operator: Privately registered:
United States
More flights under this callsign
Pilot: Jude A. (37301)
Aircraft: Diamond DA-62
(DA62)
More flights by this aircraft type
Origin: KASE Aspen-Pitkin Co/Sardy
United States
Destination: KDEN Denver Intl
United States
More flights between these airports :: More routes between these airports
Route:
File this flight plan on PilotEdge
Remarks:
Altitude:
(Current/Filed)
17,500ft
Speed:
(Current/Filed)
0kts
Departed: 04-Jan-22 07:14 PM
Arrived: 04-Jan-22 07:38 PM
Distance/Time
Traveled:
685nm/0:23
Distance/Time
To Go:
Arrived

Flight Plot

Page will automatically refresh every two minutes.

Flight plan parsing failed; only flown route is shown


Map Options




Map Legend


Flown Route
Filed Route
Departure Airport
Arrival Airport
Navaid (VOR, NDB)
Fix

Horizontal Profiles

Position Reports

Time Latitude Longitude Heading Altitude Ground
Speed
04-Jan-22 18:53 39.218277 -106.864140 68 7795ft 0kts
04-Jan-22 18:54 39.218277 -106.864140 68 7795ft 0kts
04-Jan-22 18:55 39.218277 -106.864140 68 7795ft 0kts
04-Jan-22 18:56 39.218277 -106.864140 68 7795ft 0kts
04-Jan-22 18:57 39.218277 -106.864140 68 7795ft 0kts
04-Jan-22 18:58 39.218277 -106.864140 68 7795ft 0kts
04-Jan-22 18:59 39.218277 -106.864140 68 7795ft 0kts
04-Jan-22 19:00 39.218277 -106.864140 68 7795ft 0kts
04-Jan-22 19:01 39.218277 -106.864140 68 7795ft 0kts
04-Jan-22 19:02 39.218277 -106.864140 68 7795ft 0kts
04-Jan-22 19:03 39.218277 -106.864140 68 7795ft 0kts
04-Jan-22 19:04 39.218277 -106.864140 68 7795ft 0kts
04-Jan-22 19:05 39.218277 -106.864140 68 7795ft 0kts
04-Jan-22 19:06 39.218277 -106.864140 68 7795ft 0kts
04-Jan-22 19:07 39.218277 -106.864140 68 7795ft 0kts
04-Jan-22 19:08 39.218277 -106.864140 68 7795ft 0kts
04-Jan-22 19:09 39.218277 -106.864140 68 7795ft 0kts
04-Jan-22 19:10 39.218277 -106.864140 68 7795ft 0kts
04-Jan-22 19:11 39.215871 -106.864194 159 7812ft 23kts
04-Jan-22 19:12 39.212279 -106.862538 184 7839ft 0kts
04-Jan-22 19:13 39.213495 -106.864183 340 7829ft 64kts
04-Jan-22 19:14 39.264709 -106.873835 26 9484ft 290kts
04-Jan-22 19:15 39.312286 -106.768244 65 12050ft 382kts
04-Jan-22 19:16 39.356898 -106.639712 65 14088ft 418kts
04-Jan-22 19:17 39.407036 -106.495451 65 16252ft 452kts
04-Jan-22 19:18 39.452907 -106.364396 65 17448ft 366kts
04-Jan-22 19:19 39.493321 -106.248964 65 17496ft 342kts
04-Jan-22 19:20 39.529229 -106.136980 70 17493ft 332kts
04-Jan-22 19:21 39.558543 -106.024908 71 17500ft 327kts
04-Jan-22 19:22 39.587319 -105.913039 71 17504ft 325kts
04-Jan-22 19:23 39.615923 -105.802091 71 17498ft 324kts
04-Jan-22 19:24 39.642638 -105.690756 76 17503ft 322kts
04-Jan-22 19:25 39.661423 -105.577259 78 17499ft 322kts
04-Jan-22 19:26 39.679605 -105.463136 78 17224ft 325kts
04-Jan-22 19:27 39.697578 -105.350637 78 15219ft 308kts
04-Jan-22 19:28 39.714489 -105.245182 78 13218ft 292kts
04-Jan-22 19:29 39.730892 -105.143526 78 11207ft 283kts
04-Jan-22 19:30 39.746114 -105.049592 78 9658ft 261kts
04-Jan-22 19:31 39.746843 -104.963948 89 9120ft 225kts
04-Jan-22 19:32 39.748104 -104.888608 88 8993ft 195kts
04-Jan-22 19:33 39.749508 -104.817499 88 8240ft 216kts
04-Jan-22 19:34 39.749378 -104.742586 88 7743ft 208kts
04-Jan-22 19:35 39.757195 -104.682056 52 7111ft 161kts
04-Jan-22 19:36 39.797445 -104.659550 2 6301ft 162kts
04-Jan-22 19:37 39.837378 -104.660466 3 5418ft 33kts
04-Jan-22 19:38 39.840315 -104.661895 220 5414ft 18kts
04-Jan-22 19:39 39.839604 -104.664976 265 5410ft 0kts
04-Jan-22 19:40 39.839604 -104.664976 265 5410ft 0kts
04-Jan-22 19:41 39.839604 -104.664976 265 5410ft 0kts
04-Jan-22 19:42 39.839604 -104.664976 265 5410ft 0kts
04-Jan-22 19:43 39.839604 -104.664976 265 5410ft 0kts
04-Jan-22 19:44 39.839604 -104.664976 265 5410ft 0kts
04-Jan-22 19:45 39.839604 -104.664976 265 5410ft 0kts
04-Jan-22 19:46 39.839604 -104.664976 265 5410ft 0kts
04-Jan-22 19:51 34.432467 -119.834831 250 14ft 0kts

Navigation Log

Ident Type
Flight plan parsing failed, navigation log unavailable